createdAt,value
2022-10-23T00:02:33.964Z,14.50
2022-10-23T00:07:36.796Z,15.70
2022-10-23T00:12:39.742Z,17.10
2022-10-23T00:17:42.975Z,16.50
2022-10-23T00:22:46.005Z,15.50
2022-10-23T00:27:48.891Z,16.80
2022-10-23T00:32:51.626Z,16.70
2022-10-23T00:37:54.384Z,17.20
2022-10-23T00:42:57.184Z,15.00
2022-10-23T00:48:03.784Z,14.40
2022-10-23T00:53:07.843Z,14.60
2022-10-23T00:58:10.625Z,14.10
2022-10-23T01:03:16.482Z,13.50
2022-10-23T01:08:31.310Z,14.00
2022-10-23T01:13:55.923Z,13.00
2022-10-23T01:19:04.029Z,12.60
2022-10-23T01:24:22.873Z,13.70
2022-10-23T01:29:39.845Z,14.10
2022-10-23T01:35:02.503Z,13.20
2022-10-23T01:40:14.094Z,14.50
2022-10-23T01:45:27.807Z,14.10
2022-10-23T01:50:31.897Z,13.00
2022-10-23T01:55:39.252Z,11.20
2022-10-23T02:00:45.799Z,14.40
2022-10-23T02:05:48.688Z,12.90
2022-10-23T02:11:13.113Z,15.10
2022-10-23T02:16:41.504Z,14.90
2022-10-23T02:22:05.055Z,13.40
2022-10-23T02:27:15.980Z,13.80
2022-10-23T02:32:22.460Z,15.30
2022-10-23T02:37:25.696Z,14.60
2022-10-23T02:42:34.515Z,15.60
2022-10-23T02:48:04.447Z,14.50
2022-10-23T02:53:16.544Z,14.70
2022-10-23T02:58:23.243Z,15.60
2022-10-23T03:03:32.999Z,14.30
2022-10-23T03:08:53.015Z,15.90
2022-10-23T03:13:55.818Z,17.00
2022-10-23T03:18:58.635Z,15.40
2022-10-23T03:24:01.464Z,15.70
2022-10-23T03:29:04.243Z,16.40
2022-10-23T03:34:11.296Z,15.00
2022-10-23T03:39:14.043Z,18.60
2022-10-23T03:44:16.928Z,17.60
2022-10-23T03:49:19.729Z,16.90
2022-10-23T03:54:25.391Z,17.20
2022-10-23T03:59:28.731Z,16.80
2022-10-23T04:04:31.497Z,16.10
2022-10-23T04:14:37.207Z,16.90
2022-10-23T04:19:39.944Z,16.40
2022-10-23T04:24:46.736Z,18.10
2022-10-23T04:29:49.592Z,17.90
2022-10-23T04:34:52.668Z,18.60
2022-10-23T04:44:58.122Z,14.10
2022-10-23T04:50:00.937Z,16.90
2022-10-23T04:55:04.475Z,18.40
2022-10-23T05:00:10.632Z,17.50
2022-10-23T05:05:13.344Z,19.00
2022-10-23T05:10:16.113Z,15.30
2022-10-23T05:15:18.916Z,17.10
2022-10-23T05:20:26.955Z,17.30
2022-10-23T05:25:30.843Z,17.40
2022-10-23T05:30:34.223Z,17.10
2022-10-23T05:35:38.944Z,16.20
2022-10-23T05:40:41.784Z,16.10
2022-10-23T05:45:44.556Z,15.70
2022-10-23T05:50:47.315Z,17.10
2022-10-23T05:55:50.065Z,18.10
2022-10-23T06:00:52.794Z,18.20
2022-10-23T06:05:55.507Z,15.30
2022-10-23T06:10:58.339Z,18.00
2022-10-23T06:16:15.297Z,17.70
2022-10-23T06:21:18.374Z,17.20
2022-10-23T06:31:26.971Z,15.30
2022-10-23T06:36:29.785Z,16.10
2022-10-23T06:41:32.591Z,13.40
2022-10-23T06:46:36.108Z,11.10
2022-10-23T06:51:38.844Z,13.10
2022-10-23T06:56:41.558Z,12.00
2022-10-23T07:01:44.451Z,12.10
2022-10-23T07:11:50.408Z,12.50
2022-10-23T07:16:53.191Z,11.80
2022-10-23T07:21:56.028Z,11.40
2022-10-23T07:26:58.790Z,11.30
2022-10-23T07:32:02.016Z,10.40
2022-10-23T07:37:04.831Z,11.80
2022-10-23T07:42:09.818Z,11.00
2022-10-23T07:47:12.758Z,11.10
2022-10-23T07:57:18.310Z,12.70
2022-10-23T08:02:21.120Z,11.00
2022-10-23T08:07:23.899Z,12.50
2022-10-23T08:12:26.753Z,11.80
2022-10-23T08:17:29.509Z,11.30
2022-10-23T08:22:32.327Z,13.10
2022-10-23T08:27:35.402Z,12.80
2022-10-23T08:37:41.134Z,11.90
2022-10-23T08:42:51.351Z,11.40
2022-10-23T08:47:58.382Z,11.70
2022-10-23T08:53:32.615Z,11.40
2022-10-23T09:04:13.480Z,9.00
2022-10-23T09:09:38.508Z,8.70
2022-10-23T09:14:52.395Z,8.80
2022-10-23T09:20:07.594Z,9.60
2022-10-23T09:25:16.132Z,10.60
2022-10-23T09:30:35.817Z,8.80
2022-10-23T09:35:38.581Z,9.90
2022-10-23T09:40:43.915Z,10.80
2022-10-23T09:46:01.176Z,9.60
2022-10-23T09:51:25.432Z,13.40
2022-10-23T09:56:40.969Z,12.70
2022-10-23T10:01:52.710Z,10.80
2022-10-23T10:06:58.515Z,12.60
2022-10-23T10:12:30.531Z,11.70
2022-10-23T10:17:42.775Z,11.50
2022-10-23T10:23:01.006Z,16.50
2022-10-23T10:28:36.220Z,15.40
2022-10-23T10:33:51.286Z,15.70
2022-10-23T10:38:59.909Z,13.60
2022-10-23T10:44:24.797Z,14.70
2022-10-23T10:50:09.350Z,14.30
2022-10-23T10:55:18.052Z,16.80
2022-10-23T11:00:23.277Z,12.90
2022-10-23T11:05:34.931Z,16.80
2022-10-23T11:10:42.724Z,16.70
2022-10-23T11:15:46.200Z,15.70
2022-10-23T11:20:54.938Z,15.90
2022-10-23T11:26:23.358Z,15.50
2022-10-23T11:31:34.299Z,15.00
2022-10-23T11:37:01.657Z,12.10
2022-10-23T11:42:04.417Z,13.30
2022-10-23T11:47:36.428Z,13.70
2022-10-23T11:53:13.080Z,15.00
2022-10-23T11:58:23.571Z,16.40
2022-10-23T12:03:40.716Z,18.40
2022-10-23T12:08:50.240Z,17.50
2022-10-23T12:13:53.067Z,15.00
2022-10-23T12:18:57.098Z,19.30
2022-10-23T12:24:22.854Z,15.70
2022-10-23T12:29:34.900Z,16.60
2022-10-23T12:34:56.613Z,19.70
2022-10-23T12:40:02.011Z,13.60
2022-10-23T12:45:19.362Z,18.00
2022-10-23T12:50:24.057Z,15.40
2022-10-23T12:55:30.926Z,15.70
2022-10-23T13:00:36.755Z,13.90
2022-10-23T13:05:39.581Z,13.40
2022-10-23T13:15:45.962Z,17.90
2022-10-23T13:20:51.889Z,15.20
2022-10-23T13:26:23.501Z,13.20
2022-10-23T13:31:33.908Z,12.90
2022-10-23T13:36:39.650Z,11.80
2022-10-23T13:41:45.612Z,12.50
2022-10-23T13:46:48.937Z,14.50
2022-10-23T13:51:53.889Z,14.30
2022-10-23T13:56:57.760Z,12.20
2022-10-23T14:02:01.007Z,13.50
2022-10-23T14:07:04.045Z,16.00
2022-10-23T14:12:07.259Z,16.70
2022-10-23T14:17:09.986Z,14.50
2022-10-23T14:22:13.066Z,18.10
2022-10-23T14:27:15.862Z,15.80
2022-10-23T14:32:18.642Z,16.60
2022-10-23T14:37:21.956Z,15.00
2022-10-23T14:42:26.970Z,14.40
2022-10-23T14:47:32.276Z,13.00
2022-10-23T14:57:37.759Z,15.40
2022-10-23T15:02:40.689Z,17.70
2022-10-23T15:12:46.466Z,17.80
2022-10-23T15:17:49.569Z,18.10
2022-10-23T15:22:52.303Z,19.20
2022-10-23T15:27:55.044Z,39.30
2022-10-23T15:32:57.917Z,29.90
2022-10-23T15:38:00.694Z,27.70
2022-10-23T15:43:05.029Z,30.90
2022-10-23T15:48:08.606Z,29.90
2022-10-23T15:58:49.947Z,31.90
2022-10-23T16:03:53.174Z,31.50
2022-10-23T16:08:56.037Z,35.40
2022-10-23T16:14:00.046Z,51.50
2022-10-23T16:19:04.669Z,49.30
2022-10-23T16:24:08.597Z,44.60
2022-10-23T16:29:11.830Z,54.20
2022-10-23T16:34:14.711Z,58.60
2022-10-23T16:39:19.113Z,56.30
2022-10-23T16:44:21.835Z,65.40
2022-10-23T16:49:24.606Z,135.60
2022-10-23T16:54:27.372Z,48.70
2022-10-23T16:59:30.229Z,46.50
2022-10-23T17:04:32.968Z,41.80
2022-10-23T17:09:35.871Z,47.10
2022-10-23T17:14:39.275Z,31.80
2022-10-23T17:19:46.514Z,41.00
2022-10-23T17:24:52.961Z,36.30
2022-10-23T17:29:56.969Z,41.00
2022-10-23T17:34:59.690Z,36.60
2022-10-23T17:40:02.707Z,34.60
2022-10-23T17:45:06.213Z,38.80
2022-10-23T17:50:09.620Z,38.50
2022-10-23T17:55:12.382Z,38.80
2022-10-23T18:00:16.270Z,39.50
2022-10-23T18:05:18.999Z,36.10
2022-10-23T18:10:21.739Z,38.10
2022-10-23T18:15:24.559Z,39.70
2022-10-23T18:20:27.743Z,36.40
2022-10-23T18:25:31.033Z,42.90
2022-10-23T18:35:42.065Z,38.20
2022-10-23T18:40:45.055Z,33.80
2022-10-23T18:45:47.936Z,37.40
2022-10-23T18:50:50.662Z,45.10
2022-10-23T18:55:53.462Z,39.80
2022-10-23T19:00:56.226Z,37.60
2022-10-23T19:05:59.122Z,33.10
2022-10-23T19:11:01.906Z,36.50
2022-10-23T19:16:08.431Z,38.00
2022-10-23T19:21:11.848Z,42.50
2022-10-23T19:26:15.373Z,38.60
2022-10-23T19:31:18.773Z,42.90
2022-10-23T19:36:23.574Z,47.90
2022-10-23T19:41:26.574Z,44.20
2022-10-23T19:46:29.355Z,43.80
2022-10-23T19:51:32.885Z,39.30
2022-10-23T19:56:36.663Z,42.10
2022-10-23T20:01:39.625Z,46.00
2022-10-23T20:11:45.489Z,44.90
2022-10-23T20:21:57.813Z,39.60
2022-10-23T20:27:00.647Z,40.00
2022-10-23T20:32:03.497Z,31.10
2022-10-23T20:37:06.248Z,26.50
2022-10-23T20:42:09.019Z,30.20
2022-10-23T20:47:11.830Z,34.10
2022-10-23T20:52:14.563Z,36.30
2022-10-23T20:57:20.548Z,32.20
2022-10-23T21:02:24.302Z,32.10
2022-10-23T21:07:27.196Z,29.70
2022-10-23T21:12:29.990Z,26.70
2022-10-23T21:17:36.167Z,27.20
2022-10-23T21:22:39.189Z,25.80
2022-10-23T21:27:42.197Z,26.90
2022-10-23T21:37:47.715Z,22.50
2022-10-23T21:42:50.440Z,21.50
2022-10-23T21:47:53.282Z,20.30
2022-10-23T21:52:57.212Z,17.80
2022-10-23T21:58:00.011Z,20.70
2022-10-23T22:03:02.823Z,18.70
2022-10-23T22:08:06.025Z,19.40
2022-10-23T22:13:08.824Z,19.10
2022-10-23T22:18:11.625Z,18.70
2022-10-23T22:23:14.527Z,18.60
2022-10-23T22:28:17.838Z,20.90
2022-10-23T22:33:20.643Z,20.00
2022-10-23T22:38:23.442Z,18.80
2022-10-23T22:43:26.242Z,19.10
2022-10-23T22:48:29.042Z,17.40
2022-10-23T22:53:33.031Z,17.60
2022-10-23T22:58:37.149Z,14.90
2022-10-23T23:03:40.289Z,18.10
2022-10-23T23:08:43.805Z,17.40
2022-10-23T23:13:47.921Z,17.20
2022-10-23T23:18:51.276Z,17.60
2022-10-23T23:23:54.750Z,18.00
2022-10-23T23:28:57.492Z,16.70
2022-10-23T23:34:00.398Z,17.20
2022-10-23T23:44:12.246Z,17.70
2022-10-23T23:49:15.048Z,17.80
2022-10-23T23:54:18.158Z,16.90
